sensor_id;sensor_type;location;lat;lon;timestamp;P1;durP1;ratioP1;P2;durP2;ratioP2
33987;SDS011;37428;53.580;-1.666;2022-09-09T00:01:28;101.88;;;45.78;;
33987;SDS011;37428;53.580;-1.666;2022-09-09T00:04:40;91.97;;;42.33;;
33987;SDS011;37428;53.580;-1.666;2022-09-09T00:07:43;104.43;;;46.20;;
33987;SDS011;37428;53.580;-1.666;2022-09-09T00:10:51;60.88;;;39.72;;
33987;SDS011;37428;53.580;-1.666;2022-09-09T00:14:00;89.75;;;45.78;;
33987;SDS011;37428;53.580;-1.666;2022-09-09T00:17:09;86.88;;;43.80;;
33987;SDS011;37428;53.580;-1.666;2022-09-09T00:20:22;80.55;;;43.88;;
33987;SDS011;37428;53.580;-1.666;2022-09-09T00:23:32;79.38;;;43.85;;
33987;SDS011;37428;53.580;-1.666;2022-09-09T00:26:40;72.47;;;41.35;;
33987;SDS011;37428;53.580;-1.666;2022-09-09T00:29:47;65.97;;;40.42;;
33987;SDS011;37428;53.580;-1.666;2022-09-09T00:32:55;90.57;;;45.55;;
33987;SDS011;37428;53.580;-1.666;2022-09-09T00:36:03;135.65;;;50.92;;
33987;SDS011;37428;53.580;-1.666;2022-09-09T00:39:23;89.93;;;46.13;;
33987;SDS011;37428;53.580;-1.666;2022-09-09T00:42:33;70.80;;;42.50;;
33987;SDS011;37428;53.580;-1.666;2022-09-09T00:45:46;56.30;;;39.40;;
33987;SDS011;37428;53.580;-1.666;2022-09-09T00:49:03;58.45;;;39.97;;
33987;SDS011;37428;53.580;-1.666;2022-09-09T00:52:16;82.15;;;44.88;;
33987;SDS011;37428;53.580;-1.666;2022-09-09T00:55:32;64.90;;;39.08;;
33987;SDS011;37428;53.580;-1.666;2022-09-09T00:58:42;82.45;;;42.20;;
33987;SDS011;37428;53.580;-1.666;2022-09-09T01:01:51;65.25;;;39.78;;
33987;SDS011;37428;53.580;-1.666;2022-09-09T01:05:02;50.10;;;34.03;;
33987;SDS011;37428;53.580;-1.666;2022-09-09T01:08:11;59.50;;;35.95;;
33987;SDS011;37428;53.580;-1.666;2022-09-09T01:11:29;76.70;;;38.78;;
33987;SDS011;37428;53.580;-1.666;2022-09-09T01:14:40;54.80;;;33.80;;
33987;SDS011;37428;53.580;-1.666;2022-09-09T01:18:05;70.50;;;37.88;;
33987;SDS011;37428;53.580;-1.666;2022-09-09T01:21:14;69.85;;;37.53;;
33987;SDS011;37428;53.580;-1.666;2022-09-09T01:24:27;72.13;;;39.35;;
33987;SDS011;37428;53.580;-1.666;2022-09-09T01:27:40;77.85;;;38.72;;
33987;SDS011;37428;53.580;-1.666;2022-09-09T01:30:45;71.03;;;38.10;;
33987;SDS011;37428;53.580;-1.666;2022-09-09T01:33:49;64.22;;;36.38;;
33987;SDS011;37428;53.580;-1.666;2022-09-09T01:36:53;58.53;;;36.35;;
33987;SDS011;37428;53.580;-1.666;2022-09-09T01:40:00;81.88;;;38.90;;
33987;SDS011;37428;53.580;-1.666;2022-09-09T01:46:07;105.97;;;42.35;;
33987;SDS011;37428;53.580;-1.666;2022-09-09T01:49:11;95.75;;;41.10;;
33987;SDS011;37428;53.580;-1.666;2022-09-09T01:52:13;55.40;;;36.88;;
33987;SDS011;37428;53.580;-1.666;2022-09-09T01:55:15;83.18;;;39.40;;
33987;SDS011;37428;53.580;-1.666;2022-09-09T01:58:22;65.03;;;36.55;;
33987;SDS011;37428;53.580;-1.666;2022-09-09T02:01:34;68.70;;;36.97;;
33987;SDS011;37428;53.580;-1.666;2022-09-09T02:04:44;42.53;;;31.75;;
33987;SDS011;37428;53.580;-1.666;2022-09-09T02:07:49;77.80;;;39.97;;
33987;SDS011;37428;53.580;-1.666;2022-09-09T02:10:55;74.60;;;40.83;;
33987;SDS011;37428;53.580;-1.666;2022-09-09T02:14:04;52.38;;;37.55;;
33987;SDS011;37428;53.580;-1.666;2022-09-09T02:17:11;83.93;;;48.10;;
33987;SDS011;37428;53.580;-1.666;2022-09-09T02:20:20;72.72;;;45.25;;
33987;SDS011;37428;53.580;-1.666;2022-09-09T02:23:26;88.35;;;46.08;;
33987;SDS011;37428;53.580;-1.666;2022-09-09T02:26:30;89.53;;;46.30;;
33987;SDS011;37428;53.580;-1.666;2022-09-09T02:29:37;82.13;;;45.00;;
33987;SDS011;37428;53.580;-1.666;2022-09-09T02:32:42;67.93;;;42.95;;
33987;SDS011;37428;53.580;-1.666;2022-09-09T02:35:46;96.68;;;46.72;;
33987;SDS011;37428;53.580;-1.666;2022-09-09T02:38:49;82.07;;;45.97;;
33987;SDS011;37428;53.580;-1.666;2022-09-09T02:41:53;52.33;;;36.88;;
33987;SDS011;37428;53.580;-1.666;2022-09-09T02:44:57;60.22;;;38.70;;
33987;SDS011;37428;53.580;-1.666;2022-09-09T02:48:02;72.13;;;42.67;;
33987;SDS011;37428;53.580;-1.666;2022-09-09T02:51:13;81.47;;;39.72;;
33987;SDS011;37428;53.580;-1.666;2022-09-09T02:54:21;106.78;;;43.58;;
33987;SDS011;37428;53.580;-1.666;2022-09-09T02:57:31;68.40;;;34.03;;
33987;SDS011;37428;53.580;-1.666;2022-09-09T03:00:39;134.90;;;43.88;;
33987;SDS011;37428;53.580;-1.666;2022-09-09T03:03:46;124.00;;;42.83;;
33987;SDS011;37428;53.580;-1.666;2022-09-09T03:06:50;43.53;;;31.95;;
33987;SDS011;37428;53.580;-1.666;2022-09-09T03:09:54;110.28;;;42.00;;
33987;SDS011;37428;53.580;-1.666;2022-09-09T03:12:56;120.03;;;45.00;;
33987;SDS011;37428;53.580;-1.666;2022-09-09T03:16:01;164.10;;;47.95;;
33987;SDS011;37428;53.580;-1.666;2022-09-09T03:19:04;57.75;;;37.05;;
33987;SDS011;37428;53.580;-1.666;2022-09-09T03:22:06;148.32;;;44.53;;
33987;SDS011;37428;53.580;-1.666;2022-09-09T03:25:10;101.70;;;41.95;;
33987;SDS011;37428;53.580;-1.666;2022-09-09T03:28:12;77.93;;;38.85;;
33987;SDS011;37428;53.580;-1.666;2022-09-09T03:31:16;126.65;;;43.10;;
33987;SDS011;37428;53.580;-1.666;2022-09-09T03:34:19;141.68;;;43.20;;
33987;SDS011;37428;53.580;-1.666;2022-09-09T03:37:22;61.70;;;36.45;;
33987;SDS011;37428;53.580;-1.666;2022-09-09T03:40:24;84.25;;;36.35;;
33987;SDS011;37428;53.580;-1.666;2022-09-09T03:43:26;45.63;;;30.48;;
33987;SDS011;37428;53.580;-1.666;2022-09-09T03:46:31;99.50;;;37.83;;
33987;SDS011;37428;53.580;-1.666;2022-09-09T03:49:33;64.72;;;36.10;;
33987;SDS011;37428;53.580;-1.666;2022-09-09T03:52:36;49.10;;;32.30;;
33987;SDS011;37428;53.580;-1.666;2022-09-09T03:55:39;107.47;;;41.83;;
33987;SDS011;37428;53.580;-1.666;2022-09-09T03:58:44;109.50;;;41.45;;
33987;SDS011;37428;53.580;-1.666;2022-09-09T04:01:48;100.78;;;41.55;;
33987;SDS011;37428;53.580;-1.666;2022-09-09T04:04:51;80.05;;;42.00;;
33987;SDS011;37428;53.580;-1.666;2022-09-09T04:07:53;96.10;;;40.13;;
33987;SDS011;37428;53.580;-1.666;2022-09-09T04:10:55;111.10;;;44.38;;
33987;SDS011;37428;53.580;-1.666;2022-09-09T04:13:58;100.18;;;43.95;;
33987;SDS011;37428;53.580;-1.666;2022-09-09T04:17:03;71.07;;;37.72;;
33987;SDS011;37428;53.580;-1.666;2022-09-09T04:20:06;50.22;;;33.70;;
33987;SDS011;37428;53.580;-1.666;2022-09-09T04:23:11;83.70;;;38.53;;
33987;SDS011;37428;53.580;-1.666;2022-09-09T04:26:13;85.80;;;40.97;;
33987;SDS011;37428;53.580;-1.666;2022-09-09T04:29:15;88.55;;;40.90;;
33987;SDS011;37428;53.580;-1.666;2022-09-09T04:32:19;78.15;;;37.97;;
33987;SDS011;37428;53.580;-1.666;2022-09-09T04:35:23;77.30;;;36.40;;
33987;SDS011;37428;53.580;-1.666;2022-09-09T04:38:27;74.65;;;34.58;;
33987;SDS011;37428;53.580;-1.666;2022-09-09T04:41:29;46.42;;;29.48;;
33987;SDS011;37428;53.580;-1.666;2022-09-09T04:44:31;67.10;;;34.35;;
33987;SDS011;37428;53.580;-1.666;2022-09-09T04:47:35;58.13;;;31.77;;
33987;SDS011;37428;53.580;-1.666;2022-09-09T04:50:38;33.17;;;24.95;;
33987;SDS011;37428;53.580;-1.666;2022-09-09T04:56:42;52.78;;;28.52;;
33987;SDS011;37428;53.580;-1.666;2022-09-09T04:59:44;40.08;;;25.45;;
33987;SDS011;37428;53.580;-1.666;2022-09-09T05:05:53;56.70;;;28.15;;
33987;SDS011;37428;53.580;-1.666;2022-09-09T05:08:56;46.88;;;27.48;;
33987;SDS011;37428;53.580;-1.666;2022-09-09T05:12:00;47.03;;;28.63;;
33987;SDS011;37428;53.580;-1.666;2022-09-09T05:15:04;54.78;;;28.40;;
33987;SDS011;37428;53.580;-1.666;2022-09-09T05:18:09;41.30;;;27.17;;
33987;SDS011;37428;53.580;-1.666;2022-09-09T05:21:11;56.75;;;30.33;;
33987;SDS011;37428;53.580;-1.666;2022-09-09T05:24:14;43.03;;;27.48;;
33987;SDS011;37428;53.580;-1.666;2022-09-09T05:27:16;45.97;;;25.45;;
33987;SDS011;37428;53.580;-1.666;2022-09-09T05:33:23;32.80;;;22.17;;
33987;SDS011;37428;53.580;-1.666;2022-09-09T05:36:25;32.33;;;22.92;;
33987;SDS011;37428;53.580;-1.666;2022-09-09T05:39:28;44.70;;;27.15;;
33987;SDS011;37428;53.580;-1.666;2022-09-09T05:42:30;88.05;;;33.72;;
33987;SDS011;37428;53.580;-1.666;2022-09-09T05:45:33;61.63;;;27.90;;
33987;SDS011;37428;53.580;-1.666;2022-09-09T05:48:37;61.38;;;28.48;;
33987;SDS011;37428;53.580;-1.666;2022-09-09T05:51:40;44.33;;;23.33;;
33987;SDS011;37428;53.580;-1.666;2022-09-09T05:54:42;54.75;;;26.50;;
33987;SDS011;37428;53.580;-1.666;2022-09-09T05:57:49;75.75;;;31.00;;
33987;SDS011;37428;53.580;-1.666;2022-09-09T06:00:52;38.42;;;23.60;;
33987;SDS011;37428;53.580;-1.666;2022-09-09T06:03:59;54.25;;;25.95;;
33987;SDS011;37428;53.580;-1.666;2022-09-09T06:07:01;41.53;;;23.08;;
33987;SDS011;37428;53.580;-1.666;2022-09-09T06:10:04;46.90;;;25.77;;
33987;SDS011;37428;53.580;-1.666;2022-09-09T06:13:07;56.78;;;25.88;;
33987;SDS011;37428;53.580;-1.666;2022-09-09T06:16:10;53.38;;;27.10;;
33987;SDS011;37428;53.580;-1.666;2022-09-09T06:19:15;52.60;;;26.73;;
33987;SDS011;37428;53.580;-1.666;2022-09-09T06:22:17;38.75;;;24.60;;
33987;SDS011;37428;53.580;-1.666;2022-09-09T06:25:19;29.00;;;19.88;;
33987;SDS011;37428;53.580;-1.666;2022-09-09T06:28:24;28.00;;;19.98;;
33987;SDS011;37428;53.580;-1.666;2022-09-09T06:31:27;29.25;;;19.73;;
33987;SDS011;37428;53.580;-1.666;2022-09-09T06:34:32;24.52;;;19.13;;
33987;SDS011;37428;53.580;-1.666;2022-09-09T06:37:35;36.42;;;20.63;;
33987;SDS011;37428;53.580;-1.666;2022-09-09T06:40:37;26.73;;;19.48;;
33987;SDS011;37428;53.580;-1.666;2022-09-09T06:43:40;40.35;;;21.42;;
33987;SDS011;37428;53.580;-1.666;2022-09-09T06:46:42;28.08;;;19.83;;
33987;SDS011;37428;53.580;-1.666;2022-09-09T06:49:46;24.10;;;17.50;;
33987;SDS011;37428;53.580;-1.666;2022-09-09T06:52:48;28.10;;;19.05;;
33987;SDS011;37428;53.580;-1.666;2022-09-09T06:55:50;38.50;;;20.13;;
33987;SDS011;37428;53.580;-1.666;2022-09-09T06:58:55;33.92;;;20.98;;
33987;SDS011;37428;53.580;-1.666;2022-09-09T07:01:58;33.05;;;20.17;;
33987;SDS011;37428;53.580;-1.666;2022-09-09T07:05:03;22.77;;;16.98;;
33987;SDS011;37428;53.580;-1.666;2022-09-09T07:08:05;27.13;;;19.10;;
33987;SDS011;37428;53.580;-1.666;2022-09-09T07:11:13;25.75;;;18.55;;
33987;SDS011;37428;53.580;-1.666;2022-09-09T07:14:17;23.55;;;15.85;;
33987;SDS011;37428;53.580;-1.666;2022-09-09T07:17:19;28.42;;;17.98;;
33987;SDS011;37428;53.580;-1.666;2022-09-09T07:20:24;37.42;;;20.88;;
33987;SDS011;37428;53.580;-1.666;2022-09-09T07:23:26;26.17;;;19.05;;
33987;SDS011;37428;53.580;-1.666;2022-09-09T07:26:29;26.33;;;20.63;;
33987;SDS011;37428;53.580;-1.666;2022-09-09T07:29:34;30.63;;;19.35;;
33987;SDS011;37428;53.580;-1.666;2022-09-09T07:32:38;27.33;;;17.10;;
33987;SDS011;37428;53.580;-1.666;2022-09-09T07:35:43;26.92;;;18.17;;
33987;SDS011;37428;53.580;-1.666;2022-09-09T07:38:46;29.25;;;19.30;;
33987;SDS011;37428;53.580;-1.666;2022-09-09T07:41:51;26.55;;;18.27;;
33987;SDS011;37428;53.580;-1.666;2022-09-09T07:45:03;24.60;;;17.70;;
33987;SDS011;37428;53.580;-1.666;2022-09-09T07:48:05;28.55;;;18.23;;
33987;SDS011;37428;53.580;-1.666;2022-09-09T07:51:12;25.35;;;15.88;;
33987;SDS011;37428;53.580;-1.666;2022-09-09T07:54:18;23.02;;;14.88;;
33987;SDS011;37428;53.580;-1.666;2022-09-09T07:57:23;20.05;;;13.93;;
33987;SDS011;37428;53.580;-1.666;2022-09-09T08:00:26;19.60;;;14.35;;
33987;SDS011;37428;53.580;-1.666;2022-09-09T08:03:28;23.77;;;15.45;;
33987;SDS011;37428;53.580;-1.666;2022-09-09T08:06:32;24.30;;;13.13;;
33987;SDS011;37428;53.580;-1.666;2022-09-09T08:09:37;24.58;;;13.73;;
33987;SDS011;37428;53.580;-1.666;2022-09-09T08:12:40;23.50;;;12.10;;
33987;SDS011;37428;53.580;-1.666;2022-09-09T08:15:42;26.13;;;12.73;;
33987;SDS011;37428;53.580;-1.666;2022-09-09T08:18:44;16.50;;;10.85;;
33987;SDS011;37428;53.580;-1.666;2022-09-09T08:21:49;17.20;;;12.30;;
33987;SDS011;37428;53.580;-1.666;2022-09-09T08:24:51;22.77;;;12.93;;
33987;SDS011;37428;53.580;-1.666;2022-09-09T08:27:55;15.60;;;11.10;;
33987;SDS011;37428;53.580;-1.666;2022-09-09T08:31:04;14.15;;;10.13;;
33987;SDS011;37428;53.580;-1.666;2022-09-09T08:34:08;17.52;;;8.73;;
33987;SDS011;37428;53.580;-1.666;2022-09-09T08:40:17;10.60;;;8.27;;
33987;SDS011;37428;53.580;-1.666;2022-09-09T08:43:28;15.35;;;9.38;;
33987;SDS011;37428;53.580;-1.666;2022-09-09T08:46:33;15.43;;;9.75;;
33987;SDS011;37428;53.580;-1.666;2022-09-09T08:53:23;13.45;;;6.43;;
33987;SDS011;37428;53.580;-1.666;2022-09-09T08:56:33;12.55;;;6.30;;
33987;SDS011;37428;53.580;-1.666;2022-09-09T08:59:41;11.85;;;7.80;;
33987;SDS011;37428;53.580;-1.666;2022-09-09T09:02:46;12.35;;;6.43;;
33987;SDS011;37428;53.580;-1.666;2022-09-09T09:06:00;12.60;;;6.78;;
33987;SDS011;37428;53.580;-1.666;2022-09-09T09:09:11;10.25;;;7.13;;
33987;SDS011;37428;53.580;-1.666;2022-09-09T09:12:21;13.13;;;5.05;;
33987;SDS011;37428;53.580;-1.666;2022-09-09T09:15:35;12.70;;;5.65;;
33987;SDS011;37428;53.580;-1.666;2022-09-09T09:18:40;13.65;;;6.32;;
33987;SDS011;37428;53.580;-1.666;2022-09-09T09:21:43;13.77;;;5.65;;
33987;SDS011;37428;53.580;-1.666;2022-09-09T09:24:53;10.52;;;5.30;;
33987;SDS011;37428;53.580;-1.666;2022-09-09T09:27:58;8.13;;;3.78;;
33987;SDS011;37428;53.580;-1.666;2022-09-09T09:31:06;7.90;;;3.58;;
33987;SDS011;37428;53.580;-1.666;2022-09-09T09:34:10;8.77;;;3.20;;
33987;SDS011;37428;53.580;-1.666;2022-09-09T09:37:15;9.63;;;3.15;;
33987;SDS011;37428;53.580;-1.666;2022-09-09T09:40:25;11.30;;;2.65;;
33987;SDS011;37428;53.580;-1.666;2022-09-09T09:43:28;6.63;;;3.15;;
33987;SDS011;37428;53.580;-1.666;2022-09-09T09:46:31;9.80;;;3.03;;
33987;SDS011;37428;53.580;-1.666;2022-09-09T09:49:33;7.53;;;3.17;;
33987;SDS011;37428;53.580;-1.666;2022-09-09T09:52:35;7.57;;;3.35;;
33987;SDS011;37428;53.580;-1.666;2022-09-09T09:55:51;11.30;;;2.78;;
33987;SDS011;37428;53.580;-1.666;2022-09-09T09:58:56;6.88;;;2.60;;
33987;SDS011;37428;53.580;-1.666;2022-09-09T10:02:05;6.03;;;2.17;;
33987;SDS011;37428;53.580;-1.666;2022-09-09T10:05:15;7.63;;;2.13;;
33987;SDS011;37428;53.580;-1.666;2022-09-09T10:08:20;8.45;;;1.55;;
33987;SDS011;37428;53.580;-1.666;2022-09-09T10:11:26;9.95;;;1.80;;
33987;SDS011;37428;53.580;-1.666;2022-09-09T10:14:40;12.40;;;2.95;;
33987;SDS011;37428;53.580;-1.666;2022-09-09T10:17:54;7.63;;;2.08;;
33987;SDS011;37428;53.580;-1.666;2022-09-09T10:21:03;5.97;;;2.35;;
33987;SDS011;37428;53.580;-1.666;2022-09-09T10:24:19;4.93;;;1.60;;
33987;SDS011;37428;53.580;-1.666;2022-09-09T10:27:47;3.60;;;1.60;;
33987;SDS011;37428;53.580;-1.666;2022-09-09T10:31:02;3.22;;;1.55;;
33987;SDS011;37428;53.580;-1.666;2022-09-09T10:34:19;5.90;;;2.03;;
33987;SDS011;37428;53.580;-1.666;2022-09-09T10:37:32;7.88;;;1.90;;
33987;SDS011;37428;53.580;-1.666;2022-09-09T10:44:22;3.40;;;1.70;;
33987;SDS011;37428;53.580;-1.666;2022-09-09T10:47:38;4.90;;;1.73;;
33987;SDS011;37428;53.580;-1.666;2022-09-09T10:50:52;5.15;;;2.13;;
33987;SDS011;37428;53.580;-1.666;2022-09-09T10:54:16;7.68;;;1.92;;
33987;SDS011;37428;53.580;-1.666;2022-09-09T10:57:33;6.75;;;2.17;;
33987;SDS011;37428;53.580;-1.666;2022-09-09T11:00:43;3.30;;;1.50;;
33987;SDS011;37428;53.580;-1.666;2022-09-09T11:03:51;4.43;;;1.67;;
33987;SDS011;37428;53.580;-1.666;2022-09-09T11:06:56;4.60;;;1.73;;
33987;SDS011;37428;53.580;-1.666;2022-09-09T11:10:04;3.53;;;1.00;;
33987;SDS011;37428;53.580;-1.666;2022-09-09T11:13:15;3.60;;;1.15;;
33987;SDS011;37428;53.580;-1.666;2022-09-09T11:16:25;4.75;;;1.42;;
33987;SDS011;37428;53.580;-1.666;2022-09-09T11:19:32;10.30;;;2.60;;
33987;SDS011;37428;53.580;-1.666;2022-09-09T11:22:39;15.77;;;4.30;;
33987;SDS011;37428;53.580;-1.666;2022-09-09T11:25:50;7.88;;;2.78;;
33987;SDS011;37428;53.580;-1.666;2022-09-09T11:28:58;6.13;;;2.20;;
33987;SDS011;37428;53.580;-1.666;2022-09-09T11:32:23;4.90;;;2.07;;
33987;SDS011;37428;53.580;-1.666;2022-09-09T11:35:41;3.22;;;1.80;;
33987;SDS011;37428;53.580;-1.666;2022-09-09T11:38:51;3.28;;;1.73;;
33987;SDS011;37428;53.580;-1.666;2022-09-09T11:42:05;3.70;;;1.60;;
33987;SDS011;37428;53.580;-1.666;2022-09-09T11:45:20;5.57;;;1.73;;
33987;SDS011;37428;53.580;-1.666;2022-09-09T11:48:28;4.20;;;1.58;;
33987;SDS011;37428;53.580;-1.666;2022-09-09T11:51:33;3.83;;;1.23;;
33987;SDS011;37428;53.580;-1.666;2022-09-09T11:57:47;5.10;;;1.50;;
33987;SDS011;37428;53.580;-1.666;2022-09-09T12:00:49;3.70;;;1.73;;
33987;SDS011;37428;53.580;-1.666;2022-09-09T12:03:55;10.00;;;2.05;;
33987;SDS011;37428;53.580;-1.666;2022-09-09T12:07:24;5.07;;;1.50;;
33987;SDS011;37428;53.580;-1.666;2022-09-09T12:10:32;4.72;;;1.40;;
33987;SDS011;37428;53.580;-1.666;2022-09-09T12:13:36;9.60;;;2.95;;
33987;SDS011;37428;53.580;-1.666;2022-09-09T12:16:38;4.32;;;2.08;;
33987;SDS011;37428;53.580;-1.666;2022-09-09T12:19:42;2.67;;;0.70;;
33987;SDS011;37428;53.580;-1.666;2022-09-09T12:22:47;3.28;;;0.80;;
33987;SDS011;37428;53.580;-1.666;2022-09-09T12:29:36;4.15;;;0.93;;
33987;SDS011;37428;53.580;-1.666;2022-09-09T12:32:45;7.72;;;1.15;;
33987;SDS011;37428;53.580;-1.666;2022-09-09T12:35:50;6.25;;;1.42;;
33987;SDS011;37428;53.580;-1.666;2022-09-09T12:38:56;3.33;;;0.70;;
33987;SDS011;37428;53.580;-1.666;2022-09-09T12:42:15;3.72;;;1.00;;
33987;SDS011;37428;53.580;-1.666;2022-09-09T12:45:19;3.25;;;1.17;;
33987;SDS011;37428;53.580;-1.666;2022-09-09T12:48:22;3.75;;;0.93;;
33987;SDS011;37428;53.580;-1.666;2022-09-09T12:51:32;2.65;;;1.00;;
33987;SDS011;37428;53.580;-1.666;2022-09-09T12:54:36;2.88;;;0.75;;
33987;SDS011;37428;53.580;-1.666;2022-09-09T12:57:38;3.25;;;1.10;;
33987;SDS011;37428;53.580;-1.666;2022-09-09T13:00:48;1.83;;;0.75;;
33987;SDS011;37428;53.580;-1.666;2022-09-09T13:03:52;4.88;;;1.10;;
33987;SDS011;37428;53.580;-1.666;2022-09-09T13:07:06;3.03;;;0.80;;
33987;SDS011;37428;53.580;-1.666;2022-09-09T13:10:10;1.65;;;1.23;;
33987;SDS011;37428;53.580;-1.666;2022-09-09T13:13:14;2.78;;;0.82;;
33987;SDS011;37428;53.580;-1.666;2022-09-09T13:16:19;3.67;;;0.80;;
33987;SDS011;37428;53.580;-1.666;2022-09-09T13:19:23;1.17;;;0.63;;
33987;SDS011;37428;53.580;-1.666;2022-09-09T13:22:31;2.17;;;0.80;;
33987;SDS011;37428;53.580;-1.666;2022-09-09T13:25:36;1.77;;;0.77;;
33987;SDS011;37428;53.580;-1.666;2022-09-09T13:28:40;9.68;;;1.90;;
33987;SDS011;37428;53.580;-1.666;2022-09-09T13:31:42;2.70;;;1.03;;
33987;SDS011;37428;53.580;-1.666;2022-09-09T13:34:50;9.05;;;1.30;;
33987;SDS011;37428;53.580;-1.666;2022-09-09T13:37:54;4.88;;;1.40;;
33987;SDS011;37428;53.580;-1.666;2022-09-09T13:40:57;3.95;;;1.00;;
33987;SDS011;37428;53.580;-1.666;2022-09-09T13:44:02;2.72;;;0.60;;
33987;SDS011;37428;53.580;-1.666;2022-09-09T13:47:15;2.08;;;0.63;;
33987;SDS011;37428;53.580;-1.666;2022-09-09T13:50:20;2.40;;;0.60;;
33987;SDS011;37428;53.580;-1.666;2022-09-09T13:53:25;1.58;;;0.35;;
33987;SDS011;37428;53.580;-1.666;2022-09-09T13:56:28;3.72;;;0.68;;
33987;SDS011;37428;53.580;-1.666;2022-09-09T13:59:30;1.40;;;0.57;;
33987;SDS011;37428;53.580;-1.666;2022-09-09T14:02:34;3.00;;;0.57;;
33987;SDS011;37428;53.580;-1.666;2022-09-09T14:05:38;1.83;;;0.68;;
33987;SDS011;37428;53.580;-1.666;2022-09-09T14:08:43;3.60;;;0.60;;
33987;SDS011;37428;53.580;-1.666;2022-09-09T14:11:45;5.20;;;0.77;;
33987;SDS011;37428;53.580;-1.666;2022-09-09T14:14:48;1.23;;;0.47;;
33987;SDS011;37428;53.580;-1.666;2022-09-09T14:17:50;1.02;;;0.50;;
33987;SDS011;37428;53.580;-1.666;2022-09-09T14:20:53;1.85;;;0.70;;
33987;SDS011;37428;53.580;-1.666;2022-09-09T14:23:56;0.73;;;0.40;;
33987;SDS011;37428;53.580;-1.666;2022-09-09T14:26:59;1.15;;;0.50;;
33987;SDS011;37428;53.580;-1.666;2022-09-09T14:30:01;1.23;;;0.50;;
33987;SDS011;37428;53.580;-1.666;2022-09-09T14:33:04;2.05;;;0.60;;
33987;SDS011;37428;53.580;-1.666;2022-09-09T14:36:07;3.63;;;0.60;;
33987;SDS011;37428;53.580;-1.666;2022-09-09T14:39:11;2.78;;;0.60;;
33987;SDS011;37428;53.580;-1.666;2022-09-09T14:42:13;1.98;;;0.50;;
33987;SDS011;37428;53.580;-1.666;2022-09-09T14:48:18;1.20;;;0.57;;
33987;SDS011;37428;53.580;-1.666;2022-09-09T14:51:21;2.15;;;0.73;;
33987;SDS011;37428;53.580;-1.666;2022-09-09T14:54:25;1.38;;;0.40;;
33987;SDS011;37428;53.580;-1.666;2022-09-09T14:57:28;1.95;;;0.85;;
33987;SDS011;37428;53.580;-1.666;2022-09-09T15:00:30;1.23;;;0.55;;
33987;SDS011;37428;53.580;-1.666;2022-09-09T15:03:32;1.35;;;0.60;;
33987;SDS011;37428;53.580;-1.666;2022-09-09T15:06:35;4.82;;;0.80;;
33987;SDS011;37428;53.580;-1.666;2022-09-09T15:09:39;1.85;;;0.68;;
33987;SDS011;37428;53.580;-1.666;2022-09-09T15:12:42;2.10;;;0.68;;
33987;SDS011;37428;53.580;-1.666;2022-09-09T15:15:44;2.42;;;0.80;;
33987;SDS011;37428;53.580;-1.666;2022-09-09T15:18:47;2.63;;;0.60;;
33987;SDS011;37428;53.580;-1.666;2022-09-09T15:21:54;12.60;;;4.35;;
33987;SDS011;37428;53.580;-1.666;2022-09-09T15:24:58;9.02;;;3.20;;
33987;SDS011;37428;53.580;-1.666;2022-09-09T15:28:00;11.18;;;2.55;;
33987;SDS011;37428;53.580;-1.666;2022-09-09T15:31:04;5.72;;;1.30;;
33987;SDS011;37428;53.580;-1.666;2022-09-09T15:34:08;7.93;;;1.30;;
33987;SDS011;37428;53.580;-1.666;2022-09-09T15:37:10;4.05;;;1.02;;
33987;SDS011;37428;53.580;-1.666;2022-09-09T15:40:16;1.83;;;0.70;;
33987;SDS011;37428;53.580;-1.666;2022-09-09T15:43:18;2.97;;;0.70;;
33987;SDS011;37428;53.580;-1.666;2022-09-09T15:46:24;3.13;;;0.90;;
33987;SDS011;37428;53.580;-1.666;2022-09-09T15:49:29;1.23;;;1.15;;
33987;SDS011;37428;53.580;-1.666;2022-09-09T15:52:31;2.78;;;1.13;;
33987;SDS011;37428;53.580;-1.666;2022-09-09T15:55:35;2.13;;;0.80;;
33987;SDS011;37428;53.580;-1.666;2022-09-09T15:58:37;0.77;;;0.50;;
33987;SDS011;37428;53.580;-1.666;2022-09-09T16:01:41;3.17;;;1.00;;
33987;SDS011;37428;53.580;-1.666;2022-09-09T16:04:43;1.60;;;0.70;;
33987;SDS011;37428;53.580;-1.666;2022-09-09T16:07:46;1.58;;;0.70;;
33987;SDS011;37428;53.580;-1.666;2022-09-09T16:10:49;4.35;;;0.82;;
33987;SDS011;37428;53.580;-1.666;2022-09-09T16:13:52;2.83;;;0.52;;
33987;SDS011;37428;53.580;-1.666;2022-09-09T16:16:55;1.45;;;0.73;;
33987;SDS011;37428;53.580;-1.666;2022-09-09T16:19:59;0.65;;;0.50;;
33987;SDS011;37428;53.580;-1.666;2022-09-09T16:23:01;1.13;;;0.65;;
33987;SDS011;37428;53.580;-1.666;2022-09-09T16:26:04;2.67;;;0.85;;
33987;SDS011;37428;53.580;-1.666;2022-09-09T16:29:06;3.42;;;1.25;;
33987;SDS011;37428;53.580;-1.666;2022-09-09T16:32:09;3.63;;;0.73;;
33987;SDS011;37428;53.580;-1.666;2022-09-09T16:35:12;2.15;;;0.70;;
33987;SDS011;37428;53.580;-1.666;2022-09-09T16:38:14;4.30;;;0.80;;
33987;SDS011;37428;53.580;-1.666;2022-09-09T16:41:18;4.75;;;0.90;;
33987;SDS011;37428;53.580;-1.666;2022-09-09T16:44:20;4.13;;;0.90;;
33987;SDS011;37428;53.580;-1.666;2022-09-09T16:47:22;1.25;;;0.60;;
33987;SDS011;37428;53.580;-1.666;2022-09-09T16:50:25;1.52;;;0.60;;
33987;SDS011;37428;53.580;-1.666;2022-09-09T16:53:27;2.13;;;0.80;;
33987;SDS011;37428;53.580;-1.666;2022-09-09T16:56:31;2.05;;;0.57;;
33987;SDS011;37428;53.580;-1.666;2022-09-09T16:59:34;5.60;;;0.80;;
33987;SDS011;37428;53.580;-1.666;2022-09-09T17:02:38;6.07;;;1.02;;
33987;SDS011;37428;53.580;-1.666;2022-09-09T17:05:40;1.48;;;0.65;;
33987;SDS011;37428;53.580;-1.666;2022-09-09T17:08:44;3.13;;;0.80;;
33987;SDS011;37428;53.580;-1.666;2022-09-09T17:11:50;1.38;;;0.60;;
33987;SDS011;37428;53.580;-1.666;2022-09-09T17:14:53;3.78;;;1.42;;
33987;SDS011;37428;53.580;-1.666;2022-09-09T17:17:56;2.20;;;0.90;;
33987;SDS011;37428;53.580;-1.666;2022-09-09T17:21:03;2.70;;;0.90;;
33987;SDS011;37428;53.580;-1.666;2022-09-09T17:24:07;3.70;;;2.58;;
33987;SDS011;37428;53.580;-1.666;2022-09-09T17:27:11;8.35;;;5.70;;
33987;SDS011;37428;53.580;-1.666;2022-09-09T17:30:14;10.93;;;4.03;;
33987;SDS011;37428;53.580;-1.666;2022-09-09T17:36:21;8.45;;;5.57;;
33987;SDS011;37428;53.580;-1.666;2022-09-09T17:39:26;9.15;;;5.47;;
33987;SDS011;37428;53.580;-1.666;2022-09-09T17:42:32;8.77;;;4.72;;
33987;SDS011;37428;53.580;-1.666;2022-09-09T17:45:35;9.57;;;2.38;;
33987;SDS011;37428;53.580;-1.666;2022-09-09T17:48:37;3.25;;;1.40;;
33987;SDS011;37428;53.580;-1.666;2022-09-09T17:51:40;5.63;;;2.53;;
33987;SDS011;37428;53.580;-1.666;2022-09-09T17:54:43;10.10;;;2.65;;
33987;SDS011;37428;53.580;-1.666;2022-09-09T17:57:47;8.65;;;2.70;;
33987;SDS011;37428;53.580;-1.666;2022-09-09T18:00:49;5.07;;;1.73;;
33987;SDS011;37428;53.580;-1.666;2022-09-09T18:03:53;8.98;;;2.00;;
33987;SDS011;37428;53.580;-1.666;2022-09-09T18:06:57;9.75;;;1.85;;
33987;SDS011;37428;53.580;-1.666;2022-09-09T18:09:59;4.68;;;1.45;;
33987;SDS011;37428;53.580;-1.666;2022-09-09T18:13:03;8.57;;;1.63;;
33987;SDS011;37428;53.580;-1.666;2022-09-09T18:16:09;7.57;;;1.88;;
33987;SDS011;37428;53.580;-1.666;2022-09-09T18:19:13;6.20;;;2.22;;
33987;SDS011;37428;53.580;-1.666;2022-09-09T18:22:17;7.85;;;1.88;;
33987;SDS011;37428;53.580;-1.666;2022-09-09T18:25:19;9.98;;;1.90;;
33987;SDS011;37428;53.580;-1.666;2022-09-09T18:28:22;8.50;;;2.05;;
33987;SDS011;37428;53.580;-1.666;2022-09-09T18:31:25;10.20;;;2.15;;
33987;SDS011;37428;53.580;-1.666;2022-09-09T18:34:29;11.65;;;2.05;;
33987;SDS011;37428;53.580;-1.666;2022-09-09T18:37:32;10.63;;;2.17;;
33987;SDS011;37428;53.580;-1.666;2022-09-09T18:40:36;10.30;;;1.60;;